PHOGPHKO

Guest
Details From PHOG - Kahului International
To PHKO - Kona Intl At Keahole
Flight Number -
Tags decoded
Created
Modified
Stats Distance 80 nm / 149 km
Max Altitude 0 ft / 0 m
Waypoints 4
Social Downloads 3
Likes 0
Share VATSIM

Download

Looking for another format? Having issues loading an existing format? Contact us
Advertisement - Login to hide

Notes

Requested: PHOG WANSI QEJXO PHKO

Route

PHOG WANSI QEJXO PHKO

ID Type Via Altitude (ft/m) Position (lat/lon) Dist (leg/tot) Name
O PHOG APT - 0 / 0 20.89860 / -156.43000 - / 0 nm Kahului International
WANSI FIX - 0 / 0 20.57010 / -156.01900 30 / 30 nm
QEJXO FIX - 0 / 0 20.07280 / -156.01600 29 / 60 nm
O PHKO APT - 0 / 0 19.73930 / -156.04600 20 / 80 nm Kona Intl At Keahole

Altitude Profile

Advertisement - Login to hide

PHOG

Details ICAO PHOG (OGG)
Name Kahului International
Region USA (Hawaii)
Timezone Pacific/Honolulu (UTC-10.0)
Stats Elevation 54 ft / 16 m (AMSL)
Location 20.898600° -156.430000°
Runways 2
Magnetic Variation 9.456° E

METAR

PHOG 291854Z 00000KT 10SM FEW045 SCT060 25/18 A3008

Decode

TAF

PHOG 291751Z 2918/3018 22005KT P6SM FEW040 FM292100 04010KT P6SM SCT050 FM300500 VRB03KT P6SM FEW030 AMD LTD TO VIS AND WIND 3009/3016

Decode

Departure Runways

ID Width Length Bearing (true/mag) Surface Threshold Overrun Markings Lighting
02 150 ft / 46 m 7,002 ft / 2,134 m 34.82° / 25.37° ASPHALT 0 ft / 0 m 200 ft / 61 m PREC-APP CENTERLINE EDGE THRESHOLD MALSR
05 150 ft / 46 m 4,995 ft / 1,522 m 64.87° / 55.42° ASPHALT 0 ft / 0 m 591 ft / 180 m APP CENTERLINE EDGE THRESHOLD
20 150 ft / 46 m 7,002 ft / 2,134 m 214.83° / 205.37° ASPHALT 0 ft / 0 m 397 ft / 121 m APP CENTERLINE EDGE THRESHOLD
23 150 ft / 46 m 4,995 ft / 1,522 m 244.88° / 235.42° ASPHALT 0 ft / 0 m 0 ft / 0 m UK-APP CENTERLINE EDGE THRESHOLD

PHKO

Details ICAO PHKO (KOA)
Name Kona Intl At Keahole
Region USA (Hawaii)
Timezone Pacific/Honolulu (UTC-10.0)
Stats Elevation 43 ft / 13 m (AMSL)
Location 19.739300° -156.046000°
Runways 1
Magnetic Variation 9.370° E

METAR

PHKO 291853Z 16008KT 10SM CLR 26/15 A3005

Decode

TAF

TAF PHKO 291751Z 2918/3018 11009KT P6SM FEW050 FM292100 23008KT P6SM FEW030 BKN050 FM300600 12004KT P6SM FEW030

Decode

Destination Runways

ID Width Length Bearing (true/mag) Surface Threshold Overrun Markings Lighting
17 145 ft / 44 m 11,461 ft / 3,493 m 184.80° / 175.43° ASPHALT 417 ft / 127 m 0 ft / 0 m PREC-APP EDGE THRESHOLD SALS
35 145 ft / 44 m 11,461 ft / 3,493 m 4.80° / 355.43° ASPHALT 0 ft / 0 m 404 ft / 123 m PREC-APP EDGE THRESHOLD

Approach Navaids

Runway Type Ident Frequency Range Bearing (true/mag) Slope Elevation
17 DME IKOA 109.70 MHz 18 nm / 33 km - - 43 ft / 13 m (AMSL)
17 MM MM - - 184.77° / 175.40 ° - 43 ft / 13 m (AMSL)
17 LOC-ILS IKOA 109.70 MHz 18 nm / 33 km 184.77° / 175.40 ° - 43 ft / 13 m (AMSL)
17 GS IKOA 109.70 MHz 10 nm / 19 km 185.54° / 176.17 ° 3.00° 43 ft / 13 m (AMSL)

Popular Alternatives